sensor_id;sensor_type;location;lat;lon;timestamp;P1;durP1;ratioP1;P2;durP2;ratioP2
81864;SDS011;71313;43.514;1.500;2024-01-15T00:02:03;7.65;;;3.20;;
81864;SDS011;71313;43.514;1.500;2024-01-15T00:04:30;7.03;;;3.00;;
81864;SDS011;71313;43.514;1.500;2024-01-15T00:06:56;6.93;;;2.70;;
81864;SDS011;71313;43.514;1.500;2024-01-15T00:09:21;4.65;;;2.72;;
81864;SDS011;71313;43.514;1.500;2024-01-15T00:11:47;6.65;;;3.13;;
81864;SDS011;71313;43.514;1.500;2024-01-15T00:14:12;7.45;;;3.75;;
81864;SDS011;71313;43.514;1.500;2024-01-15T00:16:40;7.53;;;3.70;;
81864;SDS011;71313;43.514;1.500;2024-01-15T00:19:05;7.70;;;3.28;;
81864;SDS011;71313;43.514;1.500;2024-01-15T00:21:31;10.88;;;3.15;;
81864;SDS011;71313;43.514;1.500;2024-01-15T00:23:56;5.43;;;2.78;;
81864;SDS011;71313;43.514;1.500;2024-01-15T00:26:22;6.32;;;2.83;;
81864;SDS011;71313;43.514;1.500;2024-01-15T00:28:47;5.60;;;2.60;;
81864;SDS011;71313;43.514;1.500;2024-01-15T00:31:15;6.80;;;3.03;;
81864;SDS011;71313;43.514;1.500;2024-01-15T00:33:41;4.75;;;2.88;;
81864;SDS011;71313;43.514;1.500;2024-01-15T00:36:07;5.63;;;2.75;;
81864;SDS011;71313;43.514;1.500;2024-01-15T00:38:32;7.25;;;2.95;;
81864;SDS011;71313;43.514;1.500;2024-01-15T00:40:58;6.88;;;2.95;;
81864;SDS011;71313;43.514;1.500;2024-01-15T00:43:23;7.25;;;3.25;;
81864;SDS011;71313;43.514;1.500;2024-01-15T00:45:48;7.63;;;3.60;;
81864;SDS011;71313;43.514;1.500;2024-01-15T00:48:14;8.20;;;2.95;;
81864;SDS011;71313;43.514;1.500;2024-01-15T00:50:39;4.75;;;2.63;;
81864;SDS011;71313;43.514;1.500;2024-01-15T00:53:05;5.90;;;3.22;;
81864;SDS011;71313;43.514;1.500;2024-01-15T00:55:30;6.53;;;3.05;;
81864;SDS011;71313;43.514;1.500;2024-01-15T00:57:56;7.85;;;3.20;;
81864;SDS011;71313;43.514;1.500;2024-01-15T01:00:21;7.72;;;3.70;;
81864;SDS011;71313;43.514;1.500;2024-01-15T01:02:46;7.20;;;3.00;;
81864;SDS011;71313;43.514;1.500;2024-01-15T01:05:12;5.88;;;3.00;;
81864;SDS011;71313;43.514;1.500;2024-01-15T01:07:37;7.53;;;3.35;;
81864;SDS011;71313;43.514;1.500;2024-01-15T01:10:03;5.57;;;3.00;;
81864;SDS011;71313;43.514;1.500;2024-01-15T01:12:29;5.32;;;2.67;;
81864;SDS011;71313;43.514;1.500;2024-01-15T01:14:55;5.55;;;3.22;;
81864;SDS011;71313;43.514;1.500;2024-01-15T01:17:20;7.30;;;2.70;;
81864;SDS011;71313;43.514;1.500;2024-01-15T01:19:46;7.00;;;2.95;;
81864;SDS011;71313;43.514;1.500;2024-01-15T01:22:11;6.82;;;2.92;;
81864;SDS011;71313;43.514;1.500;2024-01-15T01:24:36;5.43;;;2.78;;
81864;SDS011;71313;43.514;1.500;2024-01-15T01:27:02;5.88;;;3.10;;
81864;SDS011;71313;43.514;1.500;2024-01-15T01:29:27;6.75;;;3.17;;
81864;SDS011;71313;43.514;1.500;2024-01-15T01:31:53;6.00;;;3.22;;
81864;SDS011;71313;43.514;1.500;2024-01-15T01:34:18;10.02;;;3.80;;
81864;SDS011;71313;43.514;1.500;2024-01-15T01:36:45;6.60;;;3.15;;
81864;SDS011;71313;43.514;1.500;2024-01-15T01:39:10;7.35;;;3.47;;
81864;SDS011;71313;43.514;1.500;2024-01-15T01:41:36;6.97;;;3.40;;
81864;SDS011;71313;43.514;1.500;2024-01-15T01:44:02;7.45;;;3.45;;
81864;SDS011;71313;43.514;1.500;2024-01-15T01:46:27;9.20;;;3.58;;
81864;SDS011;71313;43.514;1.500;2024-01-15T01:48:54;7.65;;;3.28;;
81864;SDS011;71313;43.514;1.500;2024-01-15T01:51:21;6.90;;;3.90;;
81864;SDS011;71313;43.514;1.500;2024-01-15T01:53:48;11.07;;;3.90;;
81864;SDS011;71313;43.514;1.500;2024-01-15T01:56:14;10.15;;;4.00;;
81864;SDS011;71313;43.514;1.500;2024-01-15T01:58:40;7.05;;;3.75;;
81864;SDS011;71313;43.514;1.500;2024-01-15T02:01:06;7.10;;;3.72;;
81864;SDS011;71313;43.514;1.500;2024-01-15T02:03:32;8.73;;;3.90;;
81864;SDS011;71313;43.514;1.500;2024-01-15T02:05:58;6.88;;;3.35;;
81864;SDS011;71313;43.514;1.500;2024-01-15T02:08:25;7.45;;;3.90;;
81864;SDS011;71313;43.514;1.500;2024-01-15T02:10:51;6.95;;;3.80;;
81864;SDS011;71313;43.514;1.500;2024-01-15T02:13:17;7.90;;;3.88;;
81864;SDS011;71313;43.514;1.500;2024-01-15T02:15:43;6.93;;;3.58;;
81864;SDS011;71313;43.514;1.500;2024-01-15T02:18:08;6.40;;;4.10;;
81864;SDS011;71313;43.514;1.500;2024-01-15T02:20:34;6.40;;;3.60;;
81864;SDS011;71313;43.514;1.500;2024-01-15T02:23:06;7.78;;;4.00;;
81864;SDS011;71313;43.514;1.500;2024-01-15T02:25:35;7.72;;;3.65;;
81864;SDS011;71313;43.514;1.500;2024-01-15T02:28:01;7.75;;;3.78;;
81864;SDS011;71313;43.514;1.500;2024-01-15T02:30:27;7.40;;;3.60;;
81864;SDS011;71313;43.514;1.500;2024-01-15T02:32:54;7.85;;;3.60;;
81864;SDS011;71313;43.514;1.500;2024-01-15T02:35:20;7.47;;;3.90;;
81864;SDS011;71313;43.514;1.500;2024-01-15T02:37:45;8.45;;;3.85;;
81864;SDS011;71313;43.514;1.500;2024-01-15T02:40:11;8.10;;;3.80;;
81864;SDS011;71313;43.514;1.500;2024-01-15T02:42:36;7.55;;;4.00;;
81864;SDS011;71313;43.514;1.500;2024-01-15T02:45:02;7.68;;;3.92;;
81864;SDS011;71313;43.514;1.500;2024-01-15T02:47:27;6.38;;;3.80;;
81864;SDS011;71313;43.514;1.500;2024-01-15T02:49:52;6.88;;;3.85;;
81864;SDS011;71313;43.514;1.500;2024-01-15T02:52:18;9.63;;;4.20;;
81864;SDS011;71313;43.514;1.500;2024-01-15T02:54:43;7.75;;;4.40;;
81864;SDS011;71313;43.514;1.500;2024-01-15T02:57:09;8.95;;;3.85;;
81864;SDS011;71313;43.514;1.500;2024-01-15T02:59:34;6.95;;;3.75;;
81864;SDS011;71313;43.514;1.500;2024-01-15T03:01:59;6.93;;;3.70;;
81864;SDS011;71313;43.514;1.500;2024-01-15T03:04:25;7.15;;;3.85;;
81864;SDS011;71313;43.514;1.500;2024-01-15T03:06:50;7.70;;;3.92;;
81864;SDS011;71313;43.514;1.500;2024-01-15T03:09:15;8.65;;;3.92;;
81864;SDS011;71313;43.514;1.500;2024-01-15T03:11:41;6.60;;;3.58;;
81864;SDS011;71313;43.514;1.500;2024-01-15T03:14:06;8.32;;;3.78;;
81864;SDS011;71313;43.514;1.500;2024-01-15T03:16:32;5.90;;;3.53;;
81864;SDS011;71313;43.514;1.500;2024-01-15T03:18:57;7.60;;;4.30;;
81864;SDS011;71313;43.514;1.500;2024-01-15T03:21:23;9.63;;;4.75;;
81864;SDS011;71313;43.514;1.500;2024-01-15T03:23:48;8.55;;;4.82;;
81864;SDS011;71313;43.514;1.500;2024-01-15T03:26:13;9.25;;;5.00;;
81864;SDS011;71313;43.514;1.500;2024-01-15T03:28:39;11.02;;;5.60;;
81864;SDS011;71313;43.514;1.500;2024-01-15T03:31:04;8.75;;;5.55;;
81864;SDS011;71313;43.514;1.500;2024-01-15T03:33:30;8.13;;;5.03;;
81864;SDS011;71313;43.514;1.500;2024-01-15T03:35:57;8.45;;;4.95;;
81864;SDS011;71313;43.514;1.500;2024-01-15T03:38:23;8.13;;;5.10;;
81864;SDS011;71313;43.514;1.500;2024-01-15T03:40:48;6.93;;;4.65;;
81864;SDS011;71313;43.514;1.500;2024-01-15T03:43:14;8.40;;;5.13;;
81864;SDS011;71313;43.514;1.500;2024-01-15T03:45:39;7.95;;;4.80;;
81864;SDS011;71313;43.514;1.500;2024-01-15T03:48:04;8.90;;;5.75;;
81864;SDS011;71313;43.514;1.500;2024-01-15T03:50:30;9.35;;;5.30;;
81864;SDS011;71313;43.514;1.500;2024-01-15T03:52:55;7.50;;;4.45;;
81864;SDS011;71313;43.514;1.500;2024-01-15T03:55:21;9.73;;;4.72;;
81864;SDS011;71313;43.514;1.500;2024-01-15T03:57:46;8.40;;;5.15;;
81864;SDS011;71313;43.514;1.500;2024-01-15T04:00:13;7.38;;;4.63;;
81864;SDS011;71313;43.514;1.500;2024-01-15T04:02:39;9.48;;;4.90;;
81864;SDS011;71313;43.514;1.500;2024-01-15T04:05:05;8.73;;;4.70;;
81864;SDS011;71313;43.514;1.500;2024-01-15T04:07:30;6.70;;;4.15;;
81864;SDS011;71313;43.514;1.500;2024-01-15T04:09:56;7.40;;;4.55;;
81864;SDS011;71313;43.514;1.500;2024-01-15T04:12:21;7.93;;;4.82;;
81864;SDS011;71313;43.514;1.500;2024-01-15T04:14:46;8.20;;;4.30;;
81864;SDS011;71313;43.514;1.500;2024-01-15T04:17:12;9.32;;;4.80;;
81864;SDS011;71313;43.514;1.500;2024-01-15T04:19:37;12.02;;;5.05;;
81864;SDS011;71313;43.514;1.500;2024-01-15T04:22:03;9.45;;;5.13;;
81864;SDS011;71313;43.514;1.500;2024-01-15T04:24:28;9.90;;;5.13;;
81864;SDS011;71313;43.514;1.500;2024-01-15T04:26:56;10.00;;;5.03;;
81864;SDS011;71313;43.514;1.500;2024-01-15T04:29:21;8.70;;;4.90;;
81864;SDS011;71313;43.514;1.500;2024-01-15T04:31:46;10.98;;;5.75;;
81864;SDS011;71313;43.514;1.500;2024-01-15T04:34:12;10.25;;;5.47;;
81864;SDS011;71313;43.514;1.500;2024-01-15T04:36:40;10.90;;;5.55;;
81864;SDS011;71313;43.514;1.500;2024-01-15T04:39:06;10.18;;;5.68;;
81864;SDS011;71313;43.514;1.500;2024-01-15T04:41:32;10.90;;;5.68;;
81864;SDS011;71313;43.514;1.500;2024-01-15T04:43:58;9.02;;;4.82;;
81864;SDS011;71313;43.514;1.500;2024-01-15T04:46:25;9.35;;;5.35;;
81864;SDS011;71313;43.514;1.500;2024-01-15T04:48:50;8.57;;;5.10;;
81864;SDS011;71313;43.514;1.500;2024-01-15T04:51:16;9.93;;;5.15;;
81864;SDS011;71313;43.514;1.500;2024-01-15T04:53:41;7.03;;;4.45;;
81864;SDS011;71313;43.514;1.500;2024-01-15T04:56:07;8.35;;;4.35;;
81864;SDS011;71313;43.514;1.500;2024-01-15T04:58:32;8.95;;;5.07;;
81864;SDS011;71313;43.514;1.500;2024-01-15T05:00:57;9.52;;;5.10;;
81864;SDS011;71313;43.514;1.500;2024-01-15T05:03:23;8.60;;;4.50;;
81864;SDS011;71313;43.514;1.500;2024-01-15T05:05:48;9.95;;;4.82;;
81864;SDS011;71313;43.514;1.500;2024-01-15T05:08:13;9.88;;;4.88;;
81864;SDS011;71313;43.514;1.500;2024-01-15T05:10:40;9.27;;;4.82;;
81864;SDS011;71313;43.514;1.500;2024-01-15T05:13:06;7.93;;;4.53;;
81864;SDS011;71313;43.514;1.500;2024-01-15T05:15:31;7.32;;;4.60;;
81864;SDS011;71313;43.514;1.500;2024-01-15T05:17:56;7.85;;;4.40;;
81864;SDS011;71313;43.514;1.500;2024-01-15T05:20:22;8.35;;;4.07;;
81864;SDS011;71313;43.514;1.500;2024-01-15T05:22:48;8.25;;;4.07;;
81864;SDS011;71313;43.514;1.500;2024-01-15T05:25:13;10.05;;;6.13;;
81864;SDS011;71313;43.514;1.500;2024-01-15T05:27:38;7.63;;;4.60;;
81864;SDS011;71313;43.514;1.500;2024-01-15T05:30:04;5.65;;;3.72;;
81864;SDS011;71313;43.514;1.500;2024-01-15T05:32:30;7.35;;;4.45;;
81864;SDS011;71313;43.514;1.500;2024-01-15T05:34:55;9.23;;;4.40;;
81864;SDS011;71313;43.514;1.500;2024-01-15T05:37:20;7.22;;;4.50;;
81864;SDS011;71313;43.514;1.500;2024-01-15T05:39:46;9.43;;;5.00;;
81864;SDS011;71313;43.514;1.500;2024-01-15T05:42:11;10.57;;;5.40;;
81864;SDS011;71313;43.514;1.500;2024-01-15T05:44:37;8.35;;;4.85;;
81864;SDS011;71313;43.514;1.500;2024-01-15T05:47:02;11.90;;;5.43;;
81864;SDS011;71313;43.514;1.500;2024-01-15T05:49:29;9.70;;;5.35;;
81864;SDS011;71313;43.514;1.500;2024-01-15T05:51:54;9.70;;;5.60;;
81864;SDS011;71313;43.514;1.500;2024-01-15T05:54:21;9.18;;;5.00;;
81864;SDS011;71313;43.514;1.500;2024-01-15T05:56:46;11.30;;;6.15;;
81864;SDS011;71313;43.514;1.500;2024-01-15T05:59:12;9.57;;;5.45;;
81864;SDS011;71313;43.514;1.500;2024-01-15T06:01:37;10.20;;;5.53;;
81864;SDS011;71313;43.514;1.500;2024-01-15T06:04:03;8.93;;;5.00;;
81864;SDS011;71313;43.514;1.500;2024-01-15T06:06:28;9.27;;;4.95;;
81864;SDS011;71313;43.514;1.500;2024-01-15T06:08:54;13.35;;;6.00;;
81864;SDS011;71313;43.514;1.500;2024-01-15T06:11:19;13.88;;;6.28;;
81864;SDS011;71313;43.514;1.500;2024-01-15T06:13:44;12.50;;;5.63;;
81864;SDS011;71313;43.514;1.500;2024-01-15T06:16:14;8.70;;;5.57;;
81864;SDS011;71313;43.514;1.500;2024-01-15T06:18:41;10.18;;;5.07;;
81864;SDS011;71313;43.514;1.500;2024-01-15T06:21:07;10.77;;;5.55;;
81864;SDS011;71313;43.514;1.500;2024-01-15T06:23:32;9.07;;;5.25;;
81864;SDS011;71313;43.514;1.500;2024-01-15T06:25:57;10.07;;;5.65;;
81864;SDS011;71313;43.514;1.500;2024-01-15T06:28:23;11.15;;;5.50;;
81864;SDS011;71313;43.514;1.500;2024-01-15T06:30:48;16.10;;;5.90;;
81864;SDS011;71313;43.514;1.500;2024-01-15T06:33:14;10.40;;;5.70;;
81864;SDS011;71313;43.514;1.500;2024-01-15T06:35:39;14.65;;;7.35;;
81864;SDS011;71313;43.514;1.500;2024-01-15T06:38:05;9.80;;;5.53;;
81864;SDS011;71313;43.514;1.500;2024-01-15T06:40:30;9.48;;;5.10;;
81864;SDS011;71313;43.514;1.500;2024-01-15T06:42:55;9.68;;;5.20;;
81864;SDS011;71313;43.514;1.500;2024-01-15T06:45:21;11.45;;;5.68;;
81864;SDS011;71313;43.514;1.500;2024-01-15T06:47:47;10.02;;;5.30;;
81864;SDS011;71313;43.514;1.500;2024-01-15T06:50:13;11.55;;;6.07;;
81864;SDS011;71313;43.514;1.500;2024-01-15T06:52:38;11.15;;;5.50;;
81864;SDS011;71313;43.514;1.500;2024-01-15T06:55:04;14.63;;;6.63;;
81864;SDS011;71313;43.514;1.500;2024-01-15T06:57:31;19.10;;;7.10;;
81864;SDS011;71313;43.514;1.500;2024-01-15T06:59:56;14.38;;;6.80;;
81864;SDS011;71313;43.514;1.500;2024-01-15T07:02:21;22.15;;;7.68;;
81864;SDS011;71313;43.514;1.500;2024-01-15T07:04:47;17.75;;;7.05;;
81864;SDS011;71313;43.514;1.500;2024-01-15T07:07:12;17.08;;;7.05;;
81864;SDS011;71313;43.514;1.500;2024-01-15T07:09:38;16.38;;;6.78;;
81864;SDS011;71313;43.514;1.500;2024-01-15T07:12:03;16.95;;;6.43;;
81864;SDS011;71313;43.514;1.500;2024-01-15T07:14:29;15.90;;;7.07;;
81864;SDS011;71313;43.514;1.500;2024-01-15T07:16:54;22.27;;;8.43;;
81864;SDS011;71313;43.514;1.500;2024-01-15T07:19:20;25.35;;;8.57;;
81864;SDS011;71313;43.514;1.500;2024-01-15T07:21:45;22.90;;;8.77;;
81864;SDS011;71313;43.514;1.500;2024-01-15T07:24:10;24.88;;;8.70;;
81864;SDS011;71313;43.514;1.500;2024-01-15T07:26:36;21.98;;;8.50;;
81864;SDS011;71313;43.514;1.500;2024-01-15T07:29:01;21.15;;;9.10;;
81864;SDS011;71313;43.514;1.500;2024-01-15T07:31:28;19.23;;;7.28;;
81864;SDS011;71313;43.514;1.500;2024-01-15T07:33:53;17.52;;;7.60;;
81864;SDS011;71313;43.514;1.500;2024-01-15T07:36:18;18.40;;;7.72;;
81864;SDS011;71313;43.514;1.500;2024-01-15T07:38:44;17.13;;;7.00;;
81864;SDS011;71313;43.514;1.500;2024-01-15T07:41:09;16.52;;;6.55;;
81864;SDS011;71313;43.514;1.500;2024-01-15T07:43:34;15.65;;;6.88;;
81864;SDS011;71313;43.514;1.500;2024-01-15T07:46:00;16.08;;;7.50;;
81864;SDS011;71313;43.514;1.500;2024-01-15T07:48:27;16.63;;;7.43;;
81864;SDS011;71313;43.514;1.500;2024-01-15T07:50:52;15.27;;;6.97;;
81864;SDS011;71313;43.514;1.500;2024-01-15T07:53:17;16.35;;;7.07;;
81864;SDS011;71313;43.514;1.500;2024-01-15T07:55:43;16.77;;;7.30;;
81864;SDS011;71313;43.514;1.500;2024-01-15T07:58:10;19.25;;;8.10;;
81864;SDS011;71313;43.514;1.500;2024-01-15T08:00:36;15.63;;;6.40;;
81864;SDS011;71313;43.514;1.500;2024-01-15T08:03:01;16.83;;;7.18;;
81864;SDS011;71313;43.514;1.500;2024-01-15T08:05:27;19.42;;;7.72;;
81864;SDS011;71313;43.514;1.500;2024-01-15T08:07:53;18.73;;;7.38;;
81864;SDS011;71313;43.514;1.500;2024-01-15T08:10:18;16.08;;;7.38;;
81864;SDS011;71313;43.514;1.500;2024-01-15T08:12:44;18.33;;;7.40;;
81864;SDS011;71313;43.514;1.500;2024-01-15T08:15:09;16.25;;;8.13;;
81864;SDS011;71313;43.514;1.500;2024-01-15T08:17:35;18.23;;;7.68;;
81864;SDS011;71313;43.514;1.500;2024-01-15T08:20:00;19.30;;;6.80;;
81864;SDS011;71313;43.514;1.500;2024-01-15T08:22:26;15.18;;;7.13;;
81864;SDS011;71313;43.514;1.500;2024-01-15T08:24:51;16.40;;;8.07;;
81864;SDS011;71313;43.514;1.500;2024-01-15T08:27:17;17.92;;;7.70;;
81864;SDS011;71313;43.514;1.500;2024-01-15T08:29:42;15.07;;;7.30;;
81864;SDS011;71313;43.514;1.500;2024-01-15T08:32:08;14.07;;;6.70;;
81864;SDS011;71313;43.514;1.500;2024-01-15T08:34:38;15.60;;;7.20;;
81864;SDS011;71313;43.514;1.500;2024-01-15T08:37:04;14.82;;;6.90;;
81864;SDS011;71313;43.514;1.500;2024-01-15T08:39:30;15.90;;;7.05;;
81864;SDS011;71313;43.514;1.500;2024-01-15T08:41:55;16.88;;;7.40;;
81864;SDS011;71313;43.514;1.500;2024-01-15T08:44:20;16.17;;;7.65;;
81864;SDS011;71313;43.514;1.500;2024-01-15T08:46:46;17.55;;;7.97;;
81864;SDS011;71313;43.514;1.500;2024-01-15T08:49:11;17.77;;;8.57;;
81864;SDS011;71313;43.514;1.500;2024-01-15T08:51:37;17.20;;;8.50;;
81864;SDS011;71313;43.514;1.500;2024-01-15T08:54:04;16.60;;;8.30;;
81864;SDS011;71313;43.514;1.500;2024-01-15T08:56:29;19.58;;;10.32;;
81864;SDS011;71313;43.514;1.500;2024-01-15T08:58:55;20.08;;;9.38;;
81864;SDS011;71313;43.514;1.500;2024-01-15T09:01:20;17.50;;;8.73;;
81864;SDS011;71313;43.514;1.500;2024-01-15T09:03:46;20.00;;;9.23;;
81864;SDS011;71313;43.514;1.500;2024-01-15T09:06:13;20.75;;;9.73;;
81864;SDS011;71313;43.514;1.500;2024-01-15T09:08:38;17.17;;;9.00;;
81864;SDS011;71313;43.514;1.500;2024-01-15T09:11:04;21.08;;;8.77;;
81864;SDS011;71313;43.514;1.500;2024-01-15T09:13:29;22.13;;;9.73;;
81864;SDS011;71313;43.514;1.500;2024-01-15T09:15:55;18.48;;;8.32;;
81864;SDS011;71313;43.514;1.500;2024-01-15T09:18:21;20.77;;;8.45;;
81864;SDS011;71313;43.514;1.500;2024-01-15T09:20:46;17.35;;;8.13;;
81864;SDS011;71313;43.514;1.500;2024-01-15T09:23:12;19.75;;;8.52;;
81864;SDS011;71313;43.514;1.500;2024-01-15T09:25:37;20.58;;;8.00;;
81864;SDS011;71313;43.514;1.500;2024-01-15T09:28:02;19.20;;;8.60;;
81864;SDS011;71313;43.514;1.500;2024-01-15T09:30:28;19.67;;;8.05;;
81864;SDS011;71313;43.514;1.500;2024-01-15T09:32:53;20.80;;;8.95;;
81864;SDS011;71313;43.514;1.500;2024-01-15T09:35:19;23.77;;;8.60;;
81864;SDS011;71313;43.514;1.500;2024-01-15T09:37:46;19.80;;;8.63;;
81864;SDS011;71313;43.514;1.500;2024-01-15T09:40:15;19.25;;;8.75;;
81864;SDS011;71313;43.514;1.500;2024-01-15T09:42:41;22.63;;;9.05;;
81864;SDS011;71313;43.514;1.500;2024-01-15T09:45:07;22.27;;;8.90;;
81864;SDS011;71313;43.514;1.500;2024-01-15T09:47:34;21.58;;;9.48;;
81864;SDS011;71313;43.514;1.500;2024-01-15T09:50:00;20.88;;;9.30;;
81864;SDS011;71313;43.514;1.500;2024-01-15T09:52:28;20.83;;;8.85;;
81864;SDS011;71313;43.514;1.500;2024-01-15T09:54:55;20.38;;;8.73;;
81864;SDS011;71313;43.514;1.500;2024-01-15T09:57:23;19.40;;;9.15;;
81864;SDS011;71313;43.514;1.500;2024-01-15T09:59:49;19.27;;;8.73;;
81864;SDS011;71313;43.514;1.500;2024-01-15T10:02:14;19.13;;;9.13;;
81864;SDS011;71313;43.514;1.500;2024-01-15T10:04:43;17.08;;;8.15;;
81864;SDS011;71313;43.514;1.500;2024-01-15T10:07:09;18.13;;;7.45;;
81864;SDS011;71313;43.514;1.500;2024-01-15T10:09:39;18.20;;;8.40;;
81864;SDS011;71313;43.514;1.500;2024-01-15T10:12:04;17.90;;;7.65;;
81864;SDS011;71313;43.514;1.500;2024-01-15T10:14:30;16.88;;;7.95;;
81864;SDS011;71313;43.514;1.500;2024-01-15T10:16:56;17.60;;;7.70;;
81864;SDS011;71313;43.514;1.500;2024-01-15T10:19:22;15.35;;;6.88;;
81864;SDS011;71313;43.514;1.500;2024-01-15T10:21:48;17.77;;;7.53;;
81864;SDS011;71313;43.514;1.500;2024-01-15T10:24:14;16.95;;;6.85;;
81864;SDS011;71313;43.514;1.500;2024-01-15T10:26:39;18.35;;;8.05;;
81864;SDS011;71313;43.514;1.500;2024-01-15T10:29:04;18.50;;;7.50;;
81864;SDS011;71313;43.514;1.500;2024-01-15T10:31:30;18.20;;;8.43;;
81864;SDS011;71313;43.514;1.500;2024-01-15T10:34:02;16.15;;;7.75;;
81864;SDS011;71313;43.514;1.500;2024-01-15T10:36:35;18.05;;;8.32;;
81864;SDS011;71313;43.514;1.500;2024-01-15T10:39:01;18.13;;;8.30;;
81864;SDS011;71313;43.514;1.500;2024-01-15T10:41:26;15.73;;;7.63;;
81864;SDS011;71313;43.514;1.500;2024-01-15T10:43:51;19.50;;;7.70;;
81864;SDS011;71313;43.514;1.500;2024-01-15T10:46:17;15.20;;;7.63;;
81864;SDS011;71313;43.514;1.500;2024-01-15T10:48:42;15.43;;;6.90;;
81864;SDS011;71313;43.514;1.500;2024-01-15T10:51:08;13.82;;;7.18;;
81864;SDS011;71313;43.514;1.500;2024-01-15T10:53:37;14.52;;;6.80;;
81864;SDS011;71313;43.514;1.500;2024-01-15T10:56:05;14.05;;;7.18;;
81864;SDS011;71313;43.514;1.500;2024-01-15T10:58:32;15.95;;;7.90;;
81864;SDS011;71313;43.514;1.500;2024-01-15T11:00:58;19.70;;;9.20;;
81864;SDS011;71313;43.514;1.500;2024-01-15T11:03:24;18.70;;;9.05;;
81864;SDS011;71313;43.514;1.500;2024-01-15T11:05:50;20.58;;;9.02;;
81864;SDS011;71313;43.514;1.500;2024-01-15T11:08:16;17.52;;;9.05;;
81864;SDS011;71313;43.514;1.500;2024-01-15T11:10:45;18.27;;;9.10;;
81864;SDS011;71313;43.514;1.500;2024-01-15T11:18:37;17.65;;;8.95;;
81864;SDS011;71313;43.514;1.500;2024-01-15T11:34:20;18.25;;;9.25;;
81864;SDS011;71313;43.514;1.500;2024-01-15T11:42:02;21.45;;;9.23;;
81864;SDS011;71313;43.514;1.500;2024-01-15T11:44:30;17.55;;;8.70;;
81864;SDS011;71313;43.514;1.500;2024-01-15T11:47:02;18.00;;;10.13;;
81864;SDS011;71313;43.514;1.500;2024-01-15T11:52:10;20.42;;;9.90;;
81864;SDS011;71313;43.514;1.500;2024-01-15T11:54:37;24.38;;;11.88;;
81864;SDS011;71313;43.514;1.500;2024-01-15T11:57:09;18.80;;;9.52;;
81864;SDS011;71313;43.514;1.500;2024-01-15T11:59:39;18.58;;;9.05;;
81864;SDS011;71313;43.514;1.500;2024-01-15T12:02:04;17.25;;;9.43;;
81864;SDS011;71313;43.514;1.500;2024-01-15T12:04:30;17.30;;;8.40;;
81864;SDS011;71313;43.514;1.500;2024-01-15T12:06:55;16.17;;;8.43;;
81864;SDS011;71313;43.514;1.500;2024-01-15T12:09:21;16.88;;;8.48;;
81864;SDS011;71313;43.514;1.500;2024-01-15T12:11:48;16.50;;;7.88;;
81864;SDS011;71313;43.514;1.500;2024-01-15T12:14:20;16.27;;;8.68;;
81864;SDS011;71313;43.514;1.500;2024-01-15T12:16:46;18.73;;;8.55;;
81864;SDS011;71313;43.514;1.500;2024-01-15T12:19:12;16.27;;;9.05;;
81864;SDS011;71313;43.514;1.500;2024-01-15T12:21:39;15.23;;;8.52;;
81864;SDS011;71313;43.514;1.500;2024-01-15T12:24:06;16.00;;;9.27;;
81864;SDS011;71313;43.514;1.500;2024-01-15T12:26:32;15.30;;;8.55;;
81864;SDS011;71313;43.514;1.500;2024-01-15T12:29:00;14.80;;;8.45;;
81864;SDS011;71313;43.514;1.500;2024-01-15T12:31:26;17.92;;;9.32;;
81864;SDS011;71313;43.514;1.500;2024-01-15T12:33:52;18.45;;;9.13;;
81864;SDS011;71313;43.514;1.500;2024-01-15T12:36:21;17.30;;;9.30;;
81864;SDS011;71313;43.514;1.500;2024-01-15T12:38:47;16.05;;;9.35;;
81864;SDS011;71313;43.514;1.500;2024-01-15T12:41:12;17.17;;;9.38;;
81864;SDS011;71313;43.514;1.500;2024-01-15T12:43:38;16.55;;;9.20;;
81864;SDS011;71313;43.514;1.500;2024-01-15T12:46:03;18.05;;;10.18;;
81864;SDS011;71313;43.514;1.500;2024-01-15T12:48:29;16.73;;;9.93;;
81864;SDS011;71313;43.514;1.500;2024-01-15T12:50:55;18.02;;;9.73;;
81864;SDS011;71313;43.514;1.500;2024-01-15T12:53:20;15.38;;;9.75;;
81864;SDS011;71313;43.514;1.500;2024-01-15T12:55:46;16.75;;;9.65;;
81864;SDS011;71313;43.514;1.500;2024-01-15T12:58:11;17.15;;;9.55;;
81864;SDS011;71313;43.514;1.500;2024-01-15T13:00:37;15.55;;;9.80;;
81864;SDS011;71313;43.514;1.500;2024-01-15T13:03:02;18.25;;;11.02;;
81864;SDS011;71313;43.514;1.500;2024-01-15T13:05:28;17.23;;;10.07;;
81864;SDS011;71313;43.514;1.500;2024-01-15T13:07:56;15.73;;;9.05;;
81864;SDS011;71313;43.514;1.500;2024-01-15T13:10:21;16.27;;;9.70;;
81864;SDS011;71313;43.514;1.500;2024-01-15T13:12:47;19.58;;;9.98;;
81864;SDS011;71313;43.514;1.500;2024-01-15T13:15:12;16.30;;;9.25;;
81864;SDS011;71313;43.514;1.500;2024-01-15T13:17:38;18.63;;;9.60;;
81864;SDS011;71313;43.514;1.500;2024-01-15T13:20:05;15.73;;;8.93;;
81864;SDS011;71313;43.514;1.500;2024-01-15T13:22:31;16.63;;;9.20;;
81864;SDS011;71313;43.514;1.500;2024-01-15T13:24:57;11.25;;;6.00;;
81864;SDS011;71313;43.514;1.500;2024-01-15T13:27:23;6.47;;;4.25;;
81864;SDS011;71313;43.514;1.500;2024-01-15T13:29:48;6.88;;;4.00;;
81864;SDS011;71313;43.514;1.500;2024-01-15T13:32:14;6.22;;;3.58;;
81864;SDS011;71313;43.514;1.500;2024-01-15T13:34:47;7.57;;;4.20;;
81864;SDS011;71313;43.514;1.500;2024-01-15T13:37:12;7.18;;;4.53;;
81864;SDS011;71313;43.514;1.500;2024-01-15T13:39:38;7.47;;;4.13;;
81864;SDS011;71313;43.514;1.500;2024-01-15T13:42:03;5.35;;;3.63;;
81864;SDS011;71313;43.514;1.500;2024-01-15T13:44:29;6.00;;;3.97;;
81864;SDS011;71313;43.514;1.500;2024-01-15T13:46:54;4.78;;;3.17;;
81864;SDS011;71313;43.514;1.500;2024-01-15T13:49:19;6.18;;;3.40;;
81864;SDS011;71313;43.514;1.500;2024-01-15T13:51:45;7.53;;;3.97;;
81864;SDS011;71313;43.514;1.500;2024-01-15T13:54:10;5.68;;;3.58;;
81864;SDS011;71313;43.514;1.500;2024-01-15T13:56:36;7.32;;;4.60;;
81864;SDS011;71313;43.514;1.500;2024-01-15T13:59:01;7.95;;;4.47;;
81864;SDS011;71313;43.514;1.500;2024-01-15T14:01:27;7.05;;;4.63;;
81864;SDS011;71313;43.514;1.500;2024-01-15T14:03:53;7.18;;;4.25;;
81864;SDS011;71313;43.514;1.500;2024-01-15T14:06:18;8.32;;;5.07;;
81864;SDS011;71313;43.514;1.500;2024-01-15T14:08:44;6.35;;;3.80;;
81864;SDS011;71313;43.514;1.500;2024-01-15T14:11:09;4.18;;;3.13;;
81864;SDS011;71313;43.514;1.500;2024-01-15T14:13:35;5.90;;;3.25;;
81864;SDS011;71313;43.514;1.500;2024-01-15T14:16:00;5.15;;;3.08;;
81864;SDS011;71313;43.514;1.500;2024-01-15T14:18:26;5.95;;;2.97;;
81864;SDS011;71313;43.514;1.500;2024-01-15T14:20:52;3.53;;;2.67;;
81864;SDS011;71313;43.514;1.500;2024-01-15T14:23:18;4.35;;;2.72;;
81864;SDS011;71313;43.514;1.500;2024-01-15T14:25:44;4.80;;;3.10;;
81864;SDS011;71313;43.514;1.500;2024-01-15T14:28:10;6.03;;;3.40;;
81864;SDS011;71313;43.514;1.500;2024-01-15T14:30:35;5.18;;;3.15;;
81864;SDS011;71313;43.514;1.500;2024-01-15T14:33:01;5.65;;;3.22;;
81864;SDS011;71313;43.514;1.500;2024-01-15T14:35:26;5.18;;;2.92;;
81864;SDS011;71313;43.514;1.500;2024-01-15T14:37:52;5.28;;;3.20;;
81864;SDS011;71313;43.514;1.500;2024-01-15T14:40:17;5.40;;;2.80;;
81864;SDS011;71313;43.514;1.500;2024-01-15T14:42:45;3.20;;;2.40;;
81864;SDS011;71313;43.514;1.500;2024-01-15T14:45:10;4.13;;;2.92;;
81864;SDS011;71313;43.514;1.500;2024-01-15T14:47:39;4.70;;;2.90;;
81864;SDS011;71313;43.514;1.500;2024-01-15T14:50:06;3.00;;;1.95;;
81864;SDS011;71313;43.514;1.500;2024-01-15T14:52:32;3.45;;;2.15;;
81864;SDS011;71313;43.514;1.500;2024-01-15T14:54:58;3.20;;;2.05;;
81864;SDS011;71313;43.514;1.500;2024-01-15T14:57:24;3.70;;;2.65;;
81864;SDS011;71313;43.514;1.500;2024-01-15T14:59:49;4.25;;;2.88;;